Time;durP1;ratioP1;P1;durP2;ratioP2;P2;SDS_P1;SDS_P2;PMS_P1;PMS_P2;Temp;Humidity;BMP_temperature;BMP_pressure;BME280_temperature;BME280_humidity;BME280_pressure;Samples;Min_cycle;Max_cycle;Signal;HPM_P1;HPM_P2
2023/04/19 00:02:21;;;;;;;14.52;8.63;;;;;;;-146.27;92.82;83889.06;5089014;28;20028;-65
2023/04/19 00:04:46;;;;;;;11.23;7.72;;;;;;;-146.27;93.06;83872.97;5088839;28;20032;-65
2023/04/19 00:07:12;;;;;;;11.38;7.93;;;;;;;-146.27;93.03;83842.84;5088629;28;20438;-65
2023/04/19 00:09:38;;;;;;;13.07;7.68;;;;;;;-146.27;92.77;83909.16;5092621;28;20028;-62
2023/04/19 00:12:04;;;;;;;10.27;7.28;;;;;;;-146.27;93.74;83895.09;5080198;28;20056;-63
2023/04/19 00:14:29;;;;;;;11.05;7.72;;;;;;;-146.27;93.81;83885.03;5088007;28;20377;-63
2023/04/19 00:16:55;;;;;;;10.02;7.00;;;;;;;-146.27;93.89;83887.06;5089819;28;20047;-64
2023/04/19 00:19:22;;;;;;;14.07;7.07;;;;;;;-146.27;94.04;83907.16;5092639;28;20023;-64
2023/04/19 00:21:47;;;;;;;11.55;7.30;;;;;;;-146.27;94.44;83897.09;5087104;28;20061;-64
2023/04/19 00:24:13;;;;;;;10.40;7.07;;;;;;;-146.27;94.88;83911.16;5093031;28;20035;-64
2023/04/19 00:26:38;;;;;;;10.32;7.10;;;;;;;-146.27;95.56;83905.13;5087737;28;20012;-64
2023/04/19 00:29:03;;;;;;;11.23;7.00;;;;;;;-146.27;95.31;83927.25;5081309;28;20033;-65
2023/04/19 00:31:29;;;;;;;11.75;7.68;;;;;;;-146.27;95.54;83899.09;5083096;28;20026;-64
2023/04/19 00:33:55;;;;;;;9.95;7.05;;;;;;;-146.27;95.35;83929.25;5093406;28;20543;-66
2023/04/19 00:36:21;;;;;;;9.88;7.13;;;;;;;-146.27;95.41;83927.25;5090447;28;20035;-65
2023/04/19 00:38:46;;;;;;;9.15;6.90;;;;;;;-146.27;95.12;83903.13;5090508;28;20058;-65
2023/04/19 00:41:11;;;;;;;10.23;7.00;;;;;;;-146.27;95.19;83947.34;5091849;28;20036;-64
2023/04/19 00:43:37;;;;;;;13.77;8.02;;;;;;;-146.27;95.27;83927.25;5086536;28;20027;-65
2023/04/19 00:46:02;;;;;;;13.23;7.25;;;;;;;-146.27;96.12;83937.28;5093682;28;20024;-65
2023/04/19 00:48:29;;;;;;;9.35;7.40;;;;;;;-146.27;96.57;83941.31;5092132;28;20383;-65
2023/04/19 00:50:55;;;;;;;11.50;7.82;;;;;;;-146.27;96.73;83923.22;5085750;28;20074;-64
2023/04/19 00:53:20;;;;;;;10.35;7.43;;;;;;;-146.27;97.13;83971.47;5080150;28;20136;-65
2023/04/19 00:55:46;;;;;;;11.25;7.30;;;;;;;-146.27;96.95;83959.41;5092050;28;20028;-64
2023/04/19 00:58:12;;;;;;;10.32;7.68;;;;;;;-146.27;97.54;83935.28;5090458;28;20024;-65
2023/04/19 01:00:37;;;;;;;9.60;7.25;;;;;;;-146.27;96.98;83935.28;5088161;28;20396;-65
2023/04/19 01:03:03;;;;;;;12.93;7.40;;;;;;;-146.27;97.01;83923.22;5086784;28;20498;-64
2023/04/19 01:05:29;;;;;;;11.07;7.70;;;;;;;-146.27;97.26;83935.28;5090578;28;20028;-65
2023/04/19 01:07:54;;;;;;;9.80;7.25;;;;;;;-146.27;97.67;83963.41;5054124;28;1090814;-65
2023/04/19 01:10:20;;;;;;;11.57;7.40;;;;;;;-146.27;97.27;83957.38;5091083;28;20028;-63
2023/04/19 01:12:45;;;;;;;12.32;7.65;;;;;;;-146.27;98.25;83985.53;5086404;28;20024;-64
2023/04/19 01:15:11;;;;;;;12.70;8.18;;;;;;;-146.27;97.86;83963.41;5092672;28;20027;-63
2023/04/19 01:17:36;;;;;;;12.73;8.63;;;;;;;-146.27;97.95;83919.19;5091817;28;20063;-63
2023/04/19 01:20:05;;;;;;;14.10;8.05;;;;;;;-146.27;98.33;83937.28;5091415;28;20032;-63
2023/04/19 01:22:30;;;;;;;11.88;8.48;;;;;;;-146.27;98.11;83959.41;5079181;28;20107;-65
2023/04/19 01:24:56;;;;;;;11.15;8.48;;;;;;;-146.27;98.66;83937.28;5090084;28;20472;-64
2023/04/19 01:27:22;;;;;;;24.23;7.93;;;;;;;-146.27;98.42;83983.50;5092271;28;20032;-64
2023/04/19 01:29:48;;;;;;;11.07;8.07;;;;;;;-146.27;98.88;83949.34;5092516;28;20055;-64
2023/04/19 01:32:13;;;;;;;11.82;8.57;;;;;;;-146.27;98.95;83955.38;5088588;28;20105;-64
2023/04/19 01:34:38;;;;;;;13.75;8.27;;;;;;;-146.27;99.59;83927.25;5091121;28;20035;-64
2023/04/19 01:37:04;;;;;;;10.35;7.45;;;;;;;-146.27;100.00;83967.44;5091415;28;20035;-64
2023/04/19 01:39:30;;;;;;;11.93;8.00;;;;;;;-146.27;100.00;84017.69;5092646;28;20020;-64
2023/04/19 01:41:55;;;;;;;13.20;8.07;;;;;;;-146.27;100.00;83961.41;5088239;28;20119;-65
2023/04/19 01:44:21;;;;;;;15.07;8.93;;;;;;;-146.27;99.94;83949.34;5093123;28;20071;-65
2023/04/19 01:46:46;;;;;;;12.88;7.82;;;;;;;-146.27;100.00;83971.47;5080234;28;20028;-66
2023/04/19 01:49:12;;;;;;;11.07;8.00;;;;;;;-146.27;100.00;83973.47;5090469;28;20028;-65
2023/04/19 01:51:38;;;;;;;13.02;8.93;;;;;;;-146.27;100.00;83995.56;5088967;28;20107;-65
2023/04/19 01:54:03;;;;;;;11.20;8.75;;;;;;;-146.27;100.00;83983.50;5093212;28;20024;-64
2023/04/19 01:56:29;;;;;;;14.52;9.10;;;;;;;-146.27;100.00;83991.56;5093151;28;20028;-64
2023/04/19 01:58:55;;;;;;;15.23;9.73;;;;;;;-146.27;100.00;83985.53;5073775;28;20052;-65
2023/04/19 02:01:20;;;;;;;12.30;8.40;;;;;;;-146.27;100.00;83991.56;5089131;28;20093;-65
2023/04/19 02:03:46;;;;;;;14.90;10.10;;;;;;;-146.27;100.00;84013.66;5088141;28;20028;-64
2023/04/19 02:06:12;;;;;;;15.55;9.18;;;;;;;-146.27;100.00;83995.56;5083780;28;20457;-65
2023/04/19 02:08:38;;;;;;;14.95;9.05;;;;;;;-146.27;100.00;83951.34;5091256;28;20048;-64
2023/04/19 02:11:09;;;;;;;15.65;9.40;;;;;;;-146.27;100.00;83979.50;5084671;28;20461;-64
2023/04/19 02:13:35;;;;;;;14.48;9.00;;;;;;;-146.27;100.00;83981.50;5088646;28;20032;-64
2023/04/19 02:16:01;;;;;;;14.23;8.93;;;;;;;-146.27;100.00;83987.53;5083361;28;20069;-65
2023/04/19 02:18:28;;;;;;;14.70;9.88;;;;;;;-146.27;100.00;84003.59;5086358;28;20020;-64
2023/04/19 02:21:03;;;;;;;17.33;9.88;;;;;;;-146.27;100.00;84027.72;5080860;28;20380;-64
2023/04/19 02:23:29;;;;;;;17.02;10.38;;;;;;;-146.27;100.00;83985.53;5084384;28;20024;-65
2023/04/19 02:25:54;;;;;;;13.38;9.70;;;;;;;-146.27;100.00;83979.50;5090888;28;20043;-65
2023/04/19 02:28:20;;;;;;;15.68;9.95;;;;;;;-146.27;100.00;83977.47;5079605;28;20024;-65
2023/04/19 02:30:45;;;;;;;17.20;10.15;;;;;;;-146.27;100.00;83973.47;5087982;28;20412;-65
2023/04/19 02:33:11;;;;;;;15.98;10.48;;;;;;;-146.27;100.00;83949.34;5092389;28;20028;-64
2023/04/19 02:35:36;;;;;;;18.00;10.00;;;;;;;-146.27;100.00;83985.53;5083246;28;20027;-64
2023/04/19 02:38:03;;;;;;;15.07;10.25;;;;;;;-146.27;100.00;83959.41;5090247;28;20034;-64
2023/04/19 02:40:29;;;;;;;15.38;9.70;;;;;;;-146.27;100.00;83981.50;5091036;28;20066;-64
2023/04/19 02:42:54;;;;;;;15.55;10.10;;;;;;;-146.27;100.00;83979.50;5092098;28;20062;-65
2023/04/19 02:45:20;;;;;;;22.90;9.95;;;;;;;-146.27;100.00;83935.28;5087851;28;20032;-65
2023/04/19 02:47:45;;;;;;;16.15;10.73;;;;;;;-146.27;100.00;83951.34;5090131;28;20020;-64
2023/04/19 02:50:11;;;;;;;15.85;10.13;;;;;;;-146.27;100.00;83925.22;5087059;28;20069;-65
2023/04/19 02:52:36;;;;;;;17.42;11.25;;;;;;;-146.27;100.00;83929.25;5071331;28;20086;-66
2023/04/19 02:55:03;;;;;;;21.52;10.43;;;;;;;-146.27;100.00;83927.25;5087091;28;20103;-65
2023/04/19 02:57:29;;;;;;;16.30;9.80;;;;;;;-146.27;100.00;83937.28;5077264;28;20020;-64
2023/04/19 02:59:54;;;;;;;16.73;10.25;;;;;;;-146.27;100.00;83959.41;5089033;28;20027;-64
2023/04/19 03:02:19;;;;;;;15.30;10.25;;;;;;;-146.27;100.00;83935.28;5078597;28;20028;-64
2023/04/19 03:04:46;;;;;;;14.65;9.82;;;;;;;-146.27;100.00;83923.22;5073354;28;20107;-65
2023/04/19 03:07:11;;;;;;;15.77;10.75;;;;;;;-146.27;100.00;83911.16;5090183;28;20051;-65
2023/04/19 03:09:36;;;;;;;17.52;10.60;;;;;;;-146.27;100.00;83925.22;5082719;28;20032;-65
2023/04/19 03:12:02;;;;;;;17.05;10.68;;;;;;;-146.27;100.00;83911.16;5090433;28;20384;-65
2023/04/19 03:14:27;;;;;;;16.17;9.93;;;;;;;-146.27;100.00;83895.09;5091783;28;20348;-65
2023/04/19 03:16:52;;;;;;;16.77;9.93;;;;;;;-146.27;100.00;83895.09;5088313;28;20028;-65
2023/04/19 03:19:18;;;;;;;20.38;9.45;;;;;;;-146.27;100.00;83875.00;5082900;28;20353;-65
2023/04/19 03:21:43;;;;;;;14.65;9.68;;;;;;;-146.27;100.00;83877.00;5079683;28;20089;-64
2023/04/19 03:24:09;;;;;;;16.25;11.13;;;;;;;-146.27;100.00;83875.00;5087881;28;20037;-64
2023/04/19 03:26:34;;;;;;;16.35;10.60;;;;;;;-146.27;100.00;83893.06;5088931;28;20467;-65
2023/04/19 03:29:00;;;;;;;16.05;10.00;;;;;;;-146.27;100.00;83866.97;5084732;28;20533;-65
2023/04/19 03:31:25;;;;;;;13.90;10.02;;;;;;;-146.27;100.00;83866.97;5083820;28;20360;-65
2023/04/19 03:33:51;;;;;;;16.27;10.63;;;;;;;-146.27;100.00;83901.13;5084366;28;20028;-65
2023/04/19 03:36:16;;;;;;;17.77;10.50;;;;;;;-146.27;100.00;83866.97;5077641;28;20344;-64
2023/04/19 03:38:43;;;;;;;17.05;10.07;;;;;;;-146.27;100.00;83854.91;5074075;28;20034;-65
2023/04/19 03:41:25;;;;;;;16.42;10.23;;;;;;;-146.27;100.00;83826.75;5080112;28;20085;-64
2023/04/19 03:43:50;;;;;;;19.05;10.57;;;;;;;-146.27;100.00;83862.94;5089273;28;20036;-64
2023/04/19 03:46:16;;;;;;;14.80;9.73;;;;;;;-146.27;100.00;83846.84;5086337;28;20464;-65
2023/04/19 03:48:41;;;;;;;20.27;11.05;;;;;;;-146.27;100.00;83879.00;5091397;28;20387;-64
2023/04/19 03:51:06;;;;;;;19.50;10.48;;;;;;;-146.27;100.00;83862.94;5087772;28;20034;-66
2023/04/19 03:53:32;;;;;;;16.25;9.93;;;;;;;-146.27;100.00;83846.84;5087969;28;20054;-63
2023/04/19 03:55:57;;;;;;;16.23;10.88;;;;;;;-146.27;100.00;83850.88;5083785;28;20039;-66
2023/04/19 03:58:22;;;;;;;16.65;10.93;;;;;;;-146.27;100.00;83858.91;5076883;28;20482;-64
2023/04/19 04:00:48;;;;;;;14.40;10.07;;;;;;;-146.27;100.00;83881.03;5089958;28;20050;-64
2023/04/19 04:03:13;;;;;;;18.30;10.30;;;;;;;-146.27;100.00;83818.72;5090345;28;20051;-66
2023/04/19 04:05:39;;;;;;;15.93;9.18;;;;;;;-146.27;100.00;83872.97;5084035;28;20051;-64
2023/04/19 04:08:04;;;;;;;16.48;11.00;;;;;;;-146.27;100.00;83864.94;5093579;28;20047;-64
2023/04/19 04:10:29;;;;;;;16.05;9.65;;;;;;;-146.27;100.00;83838.81;5085610;28;20051;-65
2023/04/19 04:12:55;;;;;;;16.42;10.00;;;;;;;-146.27;100.00;83826.75;5093702;28;20035;-65
2023/04/19 04:15:20;;;;;;;14.02;10.27;;;;;;;-146.27;100.00;83820.75;5085635;28;20388;-64
2023/04/19 04:17:46;;;;;;;16.33;10.23;;;;;;;-146.27;100.00;83850.88;5089591;28;20020;-64
2023/04/19 04:20:12;;;;;;;14.80;9.48;;;;;;;-146.27;100.00;83806.66;5088433;28;20027;-65
2023/04/19 04:22:42;;;;;;;16.88;9.77;;;;;;;-146.27;100.00;83858.91;5093767;28;20136;-64
2023/04/19 04:25:08;;;;;;;15.07;9.77;;;;;;;-146.27;100.00;83808.69;5091283;28;20020;-65
2023/04/19 04:27:34;;;;;;;17.92;10.10;;;;;;;-146.27;100.00;83818.72;5090585;28;20578;-64
2023/04/19 04:30:00;;;;;;;12.95;9.90;;;;;;;-146.27;100.00;83840.84;5092485;28;20020;-65
2023/04/19 04:32:26;;;;;;;19.17;9.55;;;;;;;-146.27;100.00;83846.84;5090176;28;20063;-66
2023/04/19 04:34:51;;;;;;;14.52;9.23;;;;;;;-146.27;100.00;83860.94;5091785;28;20760;-64
2023/04/19 04:37:17;;;;;;;16.25;8.88;;;;;;;-146.27;100.00;83830.78;5094303;28;20494;-65
2023/04/19 04:39:42;;;;;;;15.60;9.55;;;;;;;-146.27;100.00;83838.81;5091698;28;20063;-65
2023/04/19 04:42:08;;;;;;;13.18;8.90;;;;;;;-146.27;100.00;83828.78;5080524;28;20040;-64
2023/04/19 04:44:35;;;;;;;18.67;9.30;;;;;;;-146.27;100.00;83923.22;5074078;28;20120;-66
2023/04/19 04:47:00;;;;;;;14.90;8.57;;;;;;;-146.27;100.00;83798.63;5079306;28;20016;-64
2023/04/19 04:49:25;;;;;;;16.20;9.25;;;;;;;-146.27;100.00;83806.66;5092578;28;20403;-63
2023/04/19 04:51:51;;;;;;;12.98;9.00;;;;;;;-146.27;100.00;83822.75;5086345;28;20119;-65
2023/04/19 04:54:16;;;;;;;15.18;9.07;;;;;;;-146.27;100.00;83840.84;5093375;28;20024;-63
2023/04/19 04:56:41;;;;;;;15.13;8.90;;;;;;;-146.27;100.00;83804.66;5089824;28;20024;-65
2023/04/19 04:59:07;;;;;;;13.35;9.23;;;;;;;-146.27;100.00;83818.72;5086214;28;20024;-65
2023/04/19 05:01:32;;;;;;;11.65;8.27;;;;;;;-146.27;100.00;83842.84;5078234;28;20023;-67
2023/04/19 05:03:58;;;;;;;15.15;8.65;;;;;;;-146.27;100.00;83786.56;5089699;28;20064;-65
2023/04/19 05:06:23;;;;;;;17.80;9.05;;;;;;;-146.27;100.00;83810.69;5086063;28;20070;-63
2023/04/19 05:08:49;;;;;;;13.23;8.90;;;;;;;-146.27;100.00;83794.63;5081872;28;20099;-64
2023/04/19 05:11:14;;;;;;;16.55;8.80;;;;;;;-146.27;100.00;83830.78;5083964;28;20170;-64
2023/04/19 05:13:40;;;;;;;17.27;9.00;;;;;;;-146.27;100.00;83792.59;5081584;28;20054;-64
2023/04/19 05:16:05;;;;;;;13.85;9.38;;;;;;;-146.27;100.00;83828.78;5081117;28;20377;-65
2023/04/19 05:18:30;;;;;;;14.52;8.52;;;;;;;-146.27;100.00;83808.69;5086705;28;20038;-65
2023/04/19 05:20:56;;;;;;;11.98;8.07;;;;;;;-146.27;99.53;83792.59;5091506;28;20031;-65
2023/04/19 05:23:22;;;;;;;14.95;8.57;;;;;;;-146.27;99.68;83826.75;5091332;28;20392;-65
2023/04/19 05:25:47;;;;;;;16.08;9.05;;;;;;;-146.27;99.57;83816.72;5090777;28;20098;-65
2023/04/19 05:28:12;;;;;;;15.98;8.93;;;;;;;-146.27;100.00;83852.88;5088089;28;20111;-64
2023/04/19 05:30:38;;;;;;;14.60;8.52;;;;;;;-146.27;99.95;83788.59;5082921;28;20028;-65
2023/04/19 05:33:03;;;;;;;17.38;8.60;;;;;;;-146.27;100.00;83788.59;5075827;28;20120;-68
2023/04/19 05:35:29;;;;;;;14.95;8.40;;;;;;;-146.27;100.00;83824.75;5085566;28;20031;-64
2023/04/19 05:37:55;;;;;;;15.80;8.45;;;;;;;-146.27;100.00;83854.91;5090459;28;20115;-64
2023/04/19 05:40:22;;;;;;;11.90;8.88;;;;;;;-146.27;99.96;83877.00;5086057;28;20122;-67
2023/04/19 05:42:47;;;;;;;17.70;8.30;;;;;;;-146.27;100.00;83864.94;5090610;28;20115;-67
2023/04/19 05:45:14;;;;;;;13.68;8.43;;;;;;;-146.27;100.00;83885.03;5087467;28;20103;-67
2023/04/19 05:47:39;;;;;;;11.57;8.15;;;;;;;-146.27;99.62;83858.91;5091517;28;20031;-67
2023/04/19 05:50:05;;;;;;;13.48;8.77;;;;;;;-146.27;99.78;83846.84;5078557;28;20035;-67
2023/04/19 05:52:31;;;;;;;15.95;8.55;;;;;;;-146.27;99.21;83891.06;5088689;28;20502;-67
2023/04/19 05:54:57;;;;;;;19.65;8.75;;;;;;;-146.27;98.56;83860.94;5089265;28;20024;-67
2023/04/19 05:57:22;;;;;;;11.82;7.65;;;;;;;-146.27;98.42;83879.00;5090442;28;20027;-67
2023/04/19 05:59:47;;;;;;;14.40;8.23;;;;;;;-146.27;98.17;83826.75;5089239;28;20426;-68
2023/04/19 06:02:13;;;;;;;14.07;7.95;;;;;;;-146.27;98.09;83852.88;5091041;28;20024;-69
2023/04/19 06:04:38;;;;;;;15.27;8.02;;;;;;;-146.27;97.73;83870.97;5091280;28;20218;-68
2023/04/19 06:07:03;;;;;;;11.70;7.70;;;;;;;-146.27;98.14;83864.94;5086950;28;20075;-67
2023/04/19 06:09:29;;;;;;;11.32;7.93;;;;;;;-146.27;97.48;83883.03;5087589;28;20038;-68
2023/04/19 06:11:55;;;;;;;13.57;8.73;;;;;;;-146.27;97.50;83866.97;5090098;28;20035;-68
2023/04/19 06:14:21;;;;;;;12.95;8.10;;;;;;;-146.27;96.78;83879.00;5086353;28;20016;-66
2023/04/19 06:16:46;;;;;;;9.45;7.40;;;;;;;-146.27;96.33;83816.72;5103809;28;20024;-65
2023/04/19 06:19:12;;;;;;;16.23;8.93;;;;;;;-146.27;95.72;83862.94;5090736;28;20065;-65
2023/04/19 06:21:38;;;;;;;11.75;8.13;;;;;;;-146.27;94.88;83854.91;5088195;28;20039;-66
2023/04/19 06:24:05;;;;;;;11.45;6.88;;;;;;;-146.27;93.96;83830.78;5089474;28;20023;-64
2023/04/19 06:26:30;;;;;;;12.00;7.93;;;;;;;-146.27;93.67;83838.81;5089060;28;20016;-65
2023/04/19 06:28:56;;;;;;;15.32;7.82;;;;;;;-146.27;93.25;83750.41;5087474;28;20038;-65
2023/04/19 06:31:21;;;;;;;11.02;7.30;;;;;;;-146.27;92.12;83838.81;5089662;28;20051;-64
2023/04/19 06:33:46;;;;;;;11.15;7.53;;;;;;;-146.27;91.67;83818.72;5072008;28;20048;-64
2023/04/19 06:36:11;;;;;;;16.40;6.97;;;;;;;-146.27;90.73;83806.66;5072862;28;20017;-64
2023/04/19 06:38:37;;;;;;;10.15;6.82;;;;;;;-146.27;90.60;83792.59;5078791;28;20032;-64
2023/04/19 06:41:03;;;;;;;10.55;6.95;;;;;;;-146.27;89.13;83798.63;5090526;28;20027;-65
2023/04/19 06:43:29;;;;;;;12.43;7.70;;;;;;;-146.27;87.89;83786.56;5089595;28;20024;-65
2023/04/19 06:46:02;;;;;;;15.40;7.38;;;;;;;-146.27;88.64;83778.53;5085060;28;20024;-66
2023/04/19 06:48:27;;;;;;;14.55;7.82;;;;;;;-146.27;86.63;83818.72;5089406;28;20024;-65
2023/04/19 06:50:53;;;;;;;12.68;7.15;;;;;;;-146.27;86.02;83784.56;5091095;28;20062;-65
2023/04/19 06:53:18;;;;;;;8.88;6.63;;;;;;;-146.27;84.77;83770.50;5086706;28;20055;-64
2023/04/19 06:55:45;;;;;;;9.70;6.78;;;;;;;-146.27;84.29;83830.78;5090356;28;20438;-65
2023/04/19 06:58:10;;;;;;;11.68;6.93;;;;;;;-146.27;83.87;83802.66;5087163;28;20332;-64
2023/04/19 07:00:36;;;;;;;8.85;6.18;;;;;;;-146.27;83.41;83782.56;5089921;28;20031;-65
2023/04/19 07:03:01;;;;;;;12.20;6.75;;;;;;;-146.27;83.50;83746.38;5088427;28;20028;-65
2023/04/19 07:05:27;;;;;;;11.63;5.95;;;;;;;-146.27;81.64;83786.56;5091315;28;20060;-64
2023/04/19 07:07:53;;;;;;;11.82;7.00;;;;;;;-146.27;80.55;83782.56;5090381;28;20126;-64
2023/04/19 07:10:18;;;;;;;10.73;6.25;;;;;;;-146.27;80.02;83742.38;5088157;28;20467;-63
2023/04/19 07:12:44;;;;;;;11.63;6.25;;;;;;;-146.27;79.58;83724.28;5085722;28;20472;-65
2023/04/19 07:15:09;;;;;;;10.30;7.13;;;;;;;-146.27;80.10;83714.22;5091139;28;20464;-65
2023/04/19 07:17:35;;;;;;;8.05;6.25;;;;;;;-146.27;79.65;83740.34;5091206;28;20028;-66
2023/04/19 07:20:02;;;;;;;10.13;6.45;;;;;;;-146.27;79.10;83722.28;5083056;28;20480;-65
2023/04/19 07:22:28;;;;;;;8.35;6.25;;;;;;;-146.27;79.64;83696.16;5087289;28;20024;-66
2023/04/19 07:24:53;;;;;;;10.88;6.13;;;;;;;-146.27;78.67;83678.06;5089020;28;20031;-65
2023/04/19 07:27:19;;;;;;;8.60;6.05;;;;;;;-146.27;79.19;83670.03;5088398;28;20024;-65
2023/04/19 07:29:45;;;;;;;9.07;5.68;;;;;;;-146.27;76.23;83662.00;5091044;28;20486;-66
2023/04/19 07:32:12;;;;;;;11.32;6.53;;;;;;;-146.27;77.28;83696.16;5090602;28;20074;-66
2023/04/19 07:34:38;;;;;;;9.80;6.43;;;;;;;-146.27;76.07;83668.00;5090814;28;20028;-66
2023/04/19 07:37:03;;;;;;;9.35;6.50;;;;;;;-146.27;74.50;83587.63;5094351;28;20055;-65
2023/04/19 07:39:29;;;;;;;11.15;6.13;;;;;;;-146.27;73.67;83613.75;5093703;28;20039;-69
2023/04/19 07:41:55;;;;;;;8.43;6.60;;;;;;;-146.27;71.96;83607.72;5091898;28;20472;-68
2023/04/19 07:44:20;;;;;;;16.13;5.55;;;;;;;-146.27;69.43;83599.69;5093403;28;20161;-68
2023/04/19 07:46:45;;;;;;;10.80;5.95;;;;;;;-146.27;70.45;83595.69;5089510;28;20040;-68
2023/04/19 07:49:11;;;;;;;11.57;5.35;;;;;;;-146.27;72.16;83601.72;5093618;28;20028;-68
2023/04/19 07:51:36;;;;;;;11.48;5.95;;;;;;;-146.27;70.34;83585.63;5094813;28;20624;-69
2023/04/19 07:54:02;;;;;;;11.70;5.25;;;;;;;-146.27;70.92;83597.69;5090483;28;20056;-66
2023/04/19 07:56:27;;;;;;;7.80;5.20;;;;;;;-146.27;68.59;83601.72;5091836;28;20107;-68
2023/04/19 07:58:52;;;;;;;10.68;4.97;;;;;;;-146.27;68.25;83539.41;5091957;28;20031;-68
2023/04/19 08:01:18;;;;;;;6.78;5.05;;;;;;;-146.27;67.32;83565.53;5093489;28;20146;-68
2023/04/19 08:03:43;;;;;;;7.55;4.88;;;;;;;-146.27;66.48;83615.78;5093219;28;20055;-68
2023/04/19 08:06:08;;;;;;;8.52;5.65;;;;;;;-146.27;62.54;83549.47;5092292;28;20032;-66
2023/04/19 08:08:35;;;;;;;8.75;5.43;;;;;;;-146.27;65.66;83557.50;5089733;28;20039;-69
2023/04/19 08:11:01;;;;;;;8.50;5.43;;;;;;;-146.27;64.52;83515.31;5086391;28;20073;-69
2023/04/19 08:13:27;;;;;;;7.53;4.70;;;;;;;-146.27;63.53;83521.34;5094413;28;20383;-68
2023/04/19 08:15:52;;;;;;;14.73;5.45;;;;;;;-146.27;64.35;83455.03;5089494;28;20063;-68
2023/04/19 08:18:18;;;;;;;7.10;4.90;;;;;;;-146.27;63.70;83477.13;5090446;28;20056;-68
2023/04/19 08:20:45;;;;;;;9.23;5.35;;;;;;;-146.27;63.94;83436.94;5091821;28;20107;-68
2023/04/19 08:23:11;;;;;;;7.35;4.80;;;;;;;-146.27;62.92;83495.22;5094874;28;20103;-68
2023/04/19 08:25:37;;;;;;;10.43;4.68;;;;;;;-146.27;64.16;83440.94;5093093;28;20081;-69
2023/04/19 08:28:03;;;;;;;7.90;4.60;;;;;;;-146.27;59.82;83463.06;5089307;28;20012;-67
2023/04/19 08:30:28;;;;;;;9.60;5.75;;;;;;;-146.27;59.04;83434.94;5093033;28;20024;-68
2023/04/19 08:32:53;;;;;;;11.38;5.15;;;;;;;-146.27;57.69;83412.81;5092802;28;20050;-68
2023/04/19 08:35:19;;;;;;;8.40;4.38;;;;;;;-146.27;58.80;83422.88;5092729;28;20077;-67
2023/04/19 08:37:46;;;;;;;7.05;4.25;;;;;;;-146.27;58.28;83344.50;5087740;28;20107;-68
2023/04/19 08:40:13;;;;;;;6.22;4.60;;;;;;;-146.27;56.90;83362.59;5082451;28;20020;-69
2023/04/19 08:42:38;;;;;;;12.18;5.20;;;;;;;-146.27;54.14;83328.44;5086786;28;20443;-69
2023/04/19 08:45:05;;;;;;;7.15;4.13;;;;;;;-146.27;54.09;83304.31;5079092;28;20048;-67
2023/04/19 08:47:32;;;;;;;5.97;4.13;;;;;;;-146.27;57.60;83282.22;5077309;28;20369;-68
2023/04/19 08:49:59;;;;;;;8.18;3.70;;;;;;;-146.27;51.62;83250.06;5075983;28;20050;-68
2023/04/19 08:52:26;;;;;;;7.55;3.42;;;;;;;-146.27;48.91;83260.13;5072338;28;20028;-68
2023/04/19 08:54:53;;;;;;;4.38;3.00;;;;;;;-146.27;47.06;83242.03;5073790;28;20039;-68
2023/04/19 08:57:19;;;;;;;7.05;3.40;;;;;;;-146.27;46.76;83225.97;5085370;28;20056;-69
2023/04/19 08:59:47;;;;;;;3.95;2.83;;;;;;;-146.27;46.72;83236.00;5072937;28;20428;-69
2023/04/19 09:02:14;;;;;;;11.73;3.40;;;;;;;-146.27;45.92;83195.81;5075618;28;20036;-68
2023/04/19 09:04:40;;;;;;;7.25;3.20;;;;;;;-146.27;44.06;83171.72;5076494;28;20066;-67
2023/04/19 09:07:07;;;;;;;5.55;3.13;;;;;;;-146.27;46.37;83127.50;5077156;28;20640;-67
2023/04/19 09:09:33;;;;;;;3.85;2.97;;;;;;;-146.27;44.68;83161.66;5087274;28;20020;-69
2023/04/19 09:11:58;;;;;;;4.35;2.60;;;;;;;-146.27;43.51;83147.59;5086786;28;20031;-69
2023/04/19 09:14:26;;;;;;;9.68;3.05;;;;;;;-146.27;43.73;83095.38;5093063;28;20504;-68
2023/04/19 09:16:51;;;;;;;4.53;2.67;;;;;;;-146.27;43.92;83147.59;5088080;28;20034;-69
2023/04/19 09:19:17;;;;;;;4.78;2.38;;;;;;;-146.27;43.04;83071.25;5088072;28;20515;-69
2023/04/19 09:21:42;;;;;;;7.75;2.70;;;;;;;-146.27;45.13;83055.19;5090264;28;20428;-68
2023/04/19 09:24:08;;;;;;;3.47;2.58;;;;;;;-146.27;43.03;83002.94;5092216;28;20121;-69
2023/04/19 09:26:34;;;;;;;8.23;2.97;;;;;;;-146.27;42.57;83039.09;5092312;28;20016;-69
2023/04/19 09:29:09;;;;;;;3.97;2.55;;;;;;;-146.27;43.74;82990.88;5089007;28;20112;-68
2023/04/19 09:31:36;;;;;;;5.03;2.60;;;;;;;-146.27;42.85;82990.88;5093588;28;20062;-69
2023/04/19 09:34:15;;;;;;;4.07;2.88;;;;;;;-146.27;41.84;82954.72;5090640;28;20032;-68
2023/04/19 09:36:41;;;;;;;7.25;2.83;;;;;;;-146.27;40.25;82970.81;5083651;28;20384;-67
2023/04/19 09:39:06;;;;;;;4.43;2.75;;;;;;;-146.27;39.20;82954.72;5087348;28;20024;-69
2023/04/19 09:41:36;;;;;;;3.97;2.92;;;;;;;-146.27;39.86;82906.50;5093274;28;20035;-67
2023/04/19 09:44:14;;;;;;;6.32;2.90;;;;;;;-146.27;39.59;82922.59;5090029;28;20111;-67
2023/04/19 09:46:41;;;;;;;5.32;2.42;;;;;;;-146.27;38.45;82920.56;5090305;28;20032;-69
2023/04/19 09:49:12;;;;;;;4.70;2.53;;;;;;;-146.27;38.94;82912.53;5084600;28;20035;-68
2023/04/19 09:51:49;;;;;;;3.72;2.30;;;;;;;-146.27;38.08;82872.34;5081532;28;20504;-68
2023/04/19 09:54:16;;;;;;;4.35;2.70;;;;;;;-146.27;38.14;82789.97;5080385;28;20013;-68
2023/04/19 09:56:42;;;;;;;4.70;2.35;;;;;;;-146.27;37.87;82824.13;5083130;28;20498;-68
2023/04/19 09:59:11;;;;;;;2.45;1.80;;;;;;;-146.27;38.99;82787.97;5076898;28;20028;-67
2023/04/19 10:01:39;;;;;;;5.50;2.28;;;;;;;-146.27;37.62;82802.03;5091999;28;20124;-69
2023/04/19 10:04:06;;;;;;;4.47;1.75;;;;;;;-146.27;36.94;82798.03;5087389;28;20059;-66
2023/04/19 10:06:33;;;;;;;4.60;1.92;;;;;;;-146.27;36.31;82777.94;5088970;28;20480;-65
2023/04/19 10:09:03;;;;;;;7.25;2.08;;;;;;;-146.27;36.26;82765.88;5078862;28;20026;-65
2023/04/19 10:11:39;;;;;;;3.88;2.10;;;;;;;-146.27;36.16;82751.81;5087330;28;20041;-65
2023/04/19 10:14:09;;;;;;;2.97;2.15;;;;;;;-146.27;36.79;82707.63;5089842;28;20049;-64
2023/04/19 10:16:37;;;;;;;12.65;2.30;;;;;;;-146.27;36.62;82709.63;5086879;28;20027;-65
2023/04/19 10:19:07;;;;;;;4.90;1.63;;;;;;;-146.27;36.54;82673.47;5086410;28;20026;-67
2023/04/19 10:21:33;;;;;;;6.55;2.05;;;;;;;-146.27;36.19;82661.41;5082904;28;20028;-68
2023/04/19 10:23:59;;;;;;;2.90;1.73;;;;;;;-146.27;35.71;82637.31;5087118;28;20024;-68
2023/04/19 10:26:24;;;;;;;2.35;1.70;;;;;;;-146.27;36.04;82647.34;5088050;28;20035;-68
2023/04/19 10:28:50;;;;;;;4.28;1.70;;;;;;;-146.27;35.91;82605.16;5083646;28;20028;-68
2023/04/19 10:31:20;;;;;;;4.55;1.88;;;;;;;-146.27;34.54;82621.22;5089706;28;20074;-67
2023/04/19 10:33:46;;;;;;;2.88;1.67;;;;;;;-146.27;34.48;82633.28;5090356;28;20016;-69
2023/04/19 10:36:14;;;;;;;4.28;1.50;;;;;;;-146.27;34.69;82573.00;5091311;28;20031;-68
2023/04/19 10:38:50;;;;;;;2.05;1.70;;;;;;;-146.27;34.38;82585.06;5091965;28;20020;-68
2023/04/19 10:41:17;;;;;;;1.92;1.40;;;;;;;-146.27;34.14;82562.97;5091008;28;20078;-69
2023/04/19 10:44:09;;;;;;;4.13;1.20;;;;;;;-146.27;32.90;82536.84;5085530;28;20043;-67
2023/04/19 10:46:37;;;;;;;6.13;1.60;;;;;;;-146.27;33.62;82514.75;5088372;28;20040;-68
2023/04/19 10:49:03;;;;;;;8.07;1.80;;;;;;;-146.27;33.44;82490.66;5075650;28;20035;-69
2023/04/19 10:51:35;;;;;;;2.95;1.90;;;;;;;-146.27;33.13;82512.75;5086709;28;20103;-68
2023/04/19 10:54:26;;;;;;;3.28;1.65;;;;;;;-146.27;32.78;82536.84;5086866;28;20028;-67
2023/04/19 10:57:03;;;;;;;4.30;1.50;;;;;;;-146.27;32.61;82520.78;5089159;28;20028;-69
2023/04/19 10:59:30;;;;;;;11.10;2.00;;;;;;;-146.27;32.60;82504.72;5077130;28;20117;-70
2023/04/19 11:01:57;;;;;;;5.88;1.30;;;;;;;-146.27;31.88;82498.69;5091360;28;20335;-68
2023/04/19 11:04:42;;;;;;;2.55;1.50;;;;;;;-146.27;31.71;82494.66;5091224;28;20468;-68